Terminal Aerodrome Forecast
Issued by NWS Omaha/Valley, NE

Home | Current Version | Previous Version | Text Only | Print | Product List | Glossary On
Versions: 1 2 3 4 5 6 7 8 9 10 11 12 13 14 15 16 17 18 19 20 21 22 23 24 25 26 27 28
000
FTUS43 KOAX 280538
TAFLNK
TAF
KLNK 280538Z 2806/2906 14008KT P6SM SCT250
     FM282100 27010KT P6SM SCT250
     FM290000 30015G25KT P6SM SCT250
     FM290400 33023G33KT P6SM BKN100=

USA.gov is the U.S. government's official web portal to all federal, state and local government web resources and services.